Terminal Aerodrome Forecast
Issued by NWS

Home | Current Version | Previous Version | Text Only | Print | Product List | Glossary On
Versions: 1 2 3 4 5 6 7 8 9 10 11 12 13 14 15 16 17 18 19
000
FTUS43 KGLD 010520
TAFMCK
TAF
KMCK 010520Z 0106/0206 33012KT P6SM VCSH OVC008
      TEMPO 0106/0107 BKN010
     FM010900 34013G19KT P6SM VCSH OVC003
     FM011000 34013G19KT P6SM OVC003
     FM011100 34013G19KT P6SM OVC008
     FM011600 36014G21KT P6SM OVC020
     FM011700 01014G21KT P6SM OVC030=

USA.gov is the U.S. government's official web portal to all federal, state and local government web resources and services.